createdAt,value
2022-10-22T00:01:54.304Z,8.43
2022-10-22T00:04:23.864Z,7.40
2022-10-22T00:06:50.757Z,8.15
2022-10-22T00:09:17.723Z,8.75
2022-10-22T00:11:44.839Z,8.48
2022-10-22T00:14:12.006Z,9.52
2022-10-22T00:16:38.846Z,8.05
2022-10-22T00:19:06.017Z,7.82
2022-10-22T00:21:32.905Z,8.40
2022-10-22T00:23:59.751Z,8.35
2022-10-22T00:26:27.438Z,7.80
2022-10-22T00:28:54.484Z,8.30
2022-10-22T00:31:21.529Z,8.50
2022-10-22T00:33:48.698Z,7.97
2022-10-22T00:36:16.295Z,8.40
2022-10-22T00:38:43.233Z,7.53
2022-10-22T00:41:10.335Z,7.93
2022-10-22T00:43:59.026Z,8.35
2022-10-22T00:46:26.201Z,7.60
2022-10-22T00:48:53.258Z,7.30
2022-10-22T00:51:22.120Z,8.43
2022-10-22T00:53:53.422Z,7.97
2022-10-22T00:56:20.970Z,7.72
2022-10-22T00:58:50.247Z,7.95
2022-10-22T01:01:21.525Z,7.87
2022-10-22T01:03:49.361Z,8.13
2022-10-22T01:06:24.501Z,7.05
2022-10-22T01:09:30.454Z,7.20
2022-10-22T01:12:21.981Z,7.15
2022-10-22T01:15:17.014Z,6.95
2022-10-22T01:18:01.313Z,6.68
2022-10-22T01:20:39.886Z,6.40
2022-10-22T01:23:31.477Z,6.90
2022-10-22T01:26:00.034Z,6.97
2022-10-22T01:28:50.491Z,6.43
2022-10-22T01:31:18.283Z,7.57
2022-10-22T01:33:46.126Z,7.85
2022-10-22T01:36:14.445Z,6.75
2022-10-22T01:38:41.894Z,6.93
2022-10-22T01:41:08.793Z,7.12
2022-10-22T01:43:35.642Z,7.32
2022-10-22T01:46:05.099Z,6.93
2022-10-22T01:48:45.733Z,8.45
2022-10-22T01:51:27.872Z,7.43
2022-10-22T01:54:05.009Z,8.90
2022-10-22T01:56:41.327Z,8.77
2022-10-22T01:59:29.678Z,8.57
2022-10-22T02:02:24.140Z,8.52
2022-10-22T02:05:17.043Z,9.00
2022-10-22T02:07:50.005Z,9.05
2022-10-22T02:10:17.765Z,9.77
2022-10-22T02:12:46.435Z,9.45
2022-10-22T02:15:14.324Z,8.88
2022-10-22T02:17:42.768Z,9.18
2022-10-22T02:20:16.626Z,9.48
2022-10-22T02:22:43.871Z,8.82
2022-10-22T02:25:11.127Z,9.43
2022-10-22T02:27:42.026Z,9.85
2022-10-22T02:32:53.234Z,8.77
2022-10-22T02:35:22.611Z,8.15
2022-10-22T02:37:50.150Z,9.00
2022-10-22T02:40:17.473Z,8.52
2022-10-22T02:42:46.977Z,8.25
2022-10-22T02:45:13.978Z,8.02
2022-10-22T02:47:40.843Z,10.32
2022-10-22T02:50:10.307Z,9.27
2022-10-22T02:52:37.793Z,9.40
2022-10-22T02:55:05.766Z,10.85
2022-10-22T02:57:33.229Z,8.73
2022-10-22T03:00:00.079Z,9.07
2022-10-22T03:02:26.942Z,9.85
2022-10-22T03:04:54.039Z,8.35
2022-10-22T03:07:20.902Z,9.35
2022-10-22T03:09:47.746Z,11.35
2022-10-22T03:12:14.887Z,13.90
2022-10-22T03:14:41.763Z,12.80
2022-10-22T03:17:08.706Z,8.73
2022-10-22T03:19:35.903Z,9.55
2022-10-22T03:22:06.099Z,9.60
2022-10-22T03:24:46.551Z,9.93
2022-10-22T03:27:15.305Z,7.40
2022-10-22T03:29:42.742Z,8.25
2022-10-22T03:32:09.608Z,8.13
2022-10-22T03:34:36.692Z,9.02
2022-10-22T03:37:03.546Z,8.98
2022-10-22T03:39:32.179Z,8.52
2022-10-22T03:42:02.594Z,8.95
2022-10-22T03:44:32.880Z,8.93
2022-10-22T03:47:02.483Z,7.93
2022-10-22T03:49:29.806Z,9.30
2022-10-22T03:51:56.701Z,8.52
2022-10-22T03:54:23.796Z,8.13
2022-10-22T03:56:50.656Z,8.93
2022-10-22T03:59:17.500Z,8.70
2022-10-22T04:01:44.599Z,7.82
2022-10-22T04:04:11.743Z,8.60
2022-10-22T04:06:38.610Z,8.60
2022-10-22T04:09:05.495Z,7.75
2022-10-22T04:11:32.646Z,8.57
2022-10-22T04:13:59.491Z,8.32
2022-10-22T04:16:30.959Z,8.32
2022-10-22T04:18:58.525Z,7.95
2022-10-22T04:21:25.598Z,8.82
2022-10-22T04:23:53.367Z,8.60
2022-10-22T04:26:20.833Z,8.77
2022-10-22T04:28:49.203Z,8.18
2022-10-22T04:31:23.742Z,9.30
2022-10-22T04:33:55.185Z,7.93
2022-10-22T04:36:22.307Z,8.15
2022-10-22T04:38:53.559Z,8.55
2022-10-22T04:41:26.637Z,8.88
2022-10-22T04:43:54.868Z,9.32
2022-10-22T04:46:22.674Z,9.00
2022-10-22T04:48:51.039Z,9.30
2022-10-22T04:51:20.096Z,7.87
2022-10-22T04:53:47.850Z,8.73
2022-10-22T04:56:21.180Z,8.73
2022-10-22T04:58:49.541Z,8.88
2022-10-22T05:01:22.201Z,8.63
2022-10-22T05:03:50.777Z,8.15
2022-10-22T05:06:17.874Z,8.80
2022-10-22T05:08:44.865Z,9.50
2022-10-22T05:11:16.772Z,8.63
2022-10-22T05:13:44.028Z,9.65
2022-10-22T05:16:11.312Z,9.27
2022-10-22T05:18:39.274Z,9.10
2022-10-22T05:21:10.452Z,8.43
2022-10-22T05:23:38.484Z,13.00
2022-10-22T05:26:07.263Z,11.98
2022-10-22T05:28:34.592Z,10.23
2022-10-22T05:31:01.963Z,12.30
2022-10-22T05:33:29.839Z,11.50
2022-10-22T05:35:57.259Z,14.82
2022-10-22T05:38:24.922Z,10.30
2022-10-22T05:41:03.303Z,9.95
2022-10-22T05:43:30.621Z,8.93
2022-10-22T05:46:02.916Z,8.98
2022-10-22T05:48:30.146Z,9.70
2022-10-22T05:50:57.292Z,9.82
2022-10-22T05:53:24.149Z,9.85
2022-10-22T05:55:51.916Z,9.93
2022-10-22T05:58:19.009Z,11.18
2022-10-22T06:00:45.846Z,12.63
2022-10-22T06:03:12.943Z,14.18
2022-10-22T06:05:39.811Z,12.00
2022-10-22T06:08:06.677Z,11.65
2022-10-22T06:10:33.758Z,11.15
2022-10-22T06:13:01.622Z,11.63
2022-10-22T06:15:28.540Z,11.48
2022-10-22T06:17:55.695Z,10.32
2022-10-22T06:20:22.559Z,9.73
2022-10-22T06:22:49.397Z,10.13
2022-10-22T06:25:24.013Z,9.43
2022-10-22T06:27:51.807Z,11.40
2022-10-22T06:30:18.940Z,12.10
2022-10-22T06:32:45.790Z,12.80
2022-10-22T06:35:12.672Z,12.18
2022-10-22T06:37:40.051Z,10.63
2022-10-22T06:40:07.634Z,12.43
2022-10-22T06:42:34.497Z,11.85
2022-10-22T06:47:33.461Z,13.30
2022-10-22T06:50:00.319Z,10.95
2022-10-22T06:52:27.429Z,11.48
2022-10-22T06:54:54.267Z,10.70
2022-10-22T06:57:21.562Z,11.43
2022-10-22T06:59:48.666Z,11.32
2022-10-22T07:02:15.546Z,13.90
2022-10-22T07:04:42.450Z,10.45
2022-10-22T07:07:09.582Z,12.30
2022-10-22T07:09:36.430Z,12.13
2022-10-22T07:12:03.399Z,11.70
2022-10-22T07:14:33.473Z,14.23
2022-10-22T07:17:00.332Z,13.75
2022-10-22T07:19:29.942Z,14.27
2022-10-22T07:21:57.490Z,14.18
2022-10-22T07:24:24.364Z,13.40
2022-10-22T07:26:51.315Z,12.80
2022-10-22T07:29:18.467Z,12.07
2022-10-22T07:31:45.623Z,13.10
2022-10-22T07:34:12.530Z,12.80
2022-10-22T07:36:39.669Z,12.60
2022-10-22T07:39:06.550Z,11.70
2022-10-22T07:41:33.601Z,10.40
2022-10-22T07:44:00.739Z,12.13
2022-10-22T07:46:28.197Z,10.25
2022-10-22T07:48:55.213Z,9.95
2022-10-22T07:51:22.447Z,9.43
2022-10-22T07:53:49.300Z,10.23
2022-10-22T07:56:16.220Z,9.68
2022-10-22T07:58:43.402Z,9.77
2022-10-22T08:01:10.318Z,10.38
2022-10-22T08:03:37.533Z,9.88
2022-10-22T08:06:04.470Z,9.25
2022-10-22T08:08:31.757Z,9.90
2022-10-22T08:11:01.085Z,11.32
2022-10-22T08:13:30.549Z,9.95
2022-10-22T08:15:59.252Z,10.27
2022-10-22T08:18:26.609Z,10.32
2022-10-22T08:20:53.628Z,10.95
2022-10-22T08:23:24.419Z,14.50
2022-10-22T08:25:54.701Z,9.77
2022-10-22T08:28:22.386Z,10.77
2022-10-22T08:30:49.405Z,10.27
2022-10-22T08:33:16.669Z,10.15
2022-10-22T08:35:48.538Z,10.45
2022-10-22T08:38:15.397Z,11.25
2022-10-22T08:40:42.752Z,10.82
2022-10-22T08:43:21.845Z,10.55
2022-10-22T08:45:51.657Z,10.32
2022-10-22T08:48:36.798Z,10.43
2022-10-22T08:51:03.999Z,10.50
2022-10-22T08:53:37.500Z,11.80
2022-10-22T08:56:04.724Z,10.57
2022-10-22T08:58:57.172Z,12.00
2022-10-22T09:01:34.011Z,10.77
2022-10-22T09:04:14.612Z,10.63
2022-10-22T09:06:44.266Z,11.32
2022-10-22T09:09:15.943Z,11.45
2022-10-22T09:11:49.014Z,10.63
2022-10-22T09:14:18.531Z,10.63
2022-10-22T09:17:10.660Z,10.93
2022-10-22T09:19:49.312Z,11.52
2022-10-22T09:22:46.715Z,10.43
2022-10-22T09:25:21.007Z,11.48
2022-10-22T09:27:49.202Z,11.20
2022-10-22T09:30:23.924Z,10.40
2022-10-22T09:32:55.355Z,11.98
2022-10-22T09:35:24.463Z,11.88
2022-10-22T09:37:54.578Z,11.60
2022-10-22T09:40:22.228Z,11.23
2022-10-22T09:42:49.657Z,11.85
2022-10-22T09:45:23.139Z,11.95
2022-10-22T09:48:01.625Z,12.20
2022-10-22T09:50:39.400Z,12.07
2022-10-22T09:53:12.886Z,14.82
2022-10-22T09:55:41.869Z,12.63
2022-10-22T09:58:12.950Z,15.50
2022-10-22T10:00:46.613Z,15.13
2022-10-22T10:03:19.216Z,13.55
2022-10-22T10:05:52.928Z,12.15
2022-10-22T10:08:20.187Z,14.95
2022-10-22T10:11:03.275Z,13.93
2022-10-22T10:13:50.723Z,14.60
2022-10-22T10:16:27.817Z,14.20
2022-10-22T10:19:23.427Z,16.15
2022-10-22T10:22:16.568Z,12.98
2022-10-22T10:25:32.870Z,12.57
2022-10-22T10:28:19.866Z,15.68
2022-10-22T10:31:21.227Z,13.60
2022-10-22T10:34:06.531Z,12.73
2022-10-22T10:36:33.561Z,15.93
2022-10-22T10:39:05.215Z,14.82
2022-10-22T10:41:43.422Z,13.23
2022-10-22T10:44:35.095Z,13.85
2022-10-22T10:47:47.055Z,13.65
2022-10-22T10:50:24.586Z,18.83
2022-10-22T10:53:02.347Z,14.63
2022-10-22T10:55:49.679Z,13.35
2022-10-22T10:58:32.754Z,14.82
2022-10-22T11:01:26.237Z,12.15
2022-10-22T11:04:05.245Z,14.65
2022-10-22T11:06:34.316Z,13.25
2022-10-22T11:09:05.832Z,13.30
2022-10-22T11:11:55.331Z,12.98
2022-10-22T11:14:31.921Z,13.38
2022-10-22T11:17:03.707Z,13.85
2022-10-22T11:19:57.782Z,13.82
2022-10-22T11:22:32.253Z,12.90
2022-10-22T11:25:18.837Z,14.90
2022-10-22T11:28:11.889Z,13.60
2022-10-22T11:30:41.157Z,13.90
2022-10-22T11:33:12.351Z,13.83
2022-10-22T11:35:42.893Z,14.50
2022-10-22T11:38:23.101Z,14.23
2022-10-22T11:41:01.924Z,14.77
2022-10-22T11:43:31.904Z,13.00
2022-10-22T11:46:24.602Z,13.15
2022-10-22T11:49:13.102Z,15.38
2022-10-22T11:51:41.787Z,14.07
2022-10-22T11:54:45.537Z,15.13
2022-10-22T11:57:17.747Z,15.73
2022-10-22T11:59:50.034Z,14.07
2022-10-22T12:02:36.414Z,13.77
2022-10-22T12:05:22.035Z,14.15
2022-10-22T12:08:02.217Z,13.48
2022-10-22T12:13:21.058Z,17.00
2022-10-22T12:15:49.406Z,19.48
2022-10-22T12:18:16.569Z,23.60
2022-10-22T12:20:43.447Z,21.52
2022-10-22T12:23:11.892Z,23.27
2022-10-22T12:25:39.269Z,16.55
2022-10-22T12:28:11.959Z,13.70
2022-10-22T12:30:39.347Z,13.88
2022-10-22T12:33:07.787Z,16.08
2022-10-22T12:35:43.062Z,20.65
2022-10-22T12:38:15.978Z,18.25
2022-10-22T12:40:45.976Z,15.70
2022-10-22T12:43:20.538Z,15.57
2022-10-22T12:45:48.801Z,17.00
2022-10-22T12:48:19.562Z,15.32
2022-10-22T12:53:18.347Z,16.80
2022-10-22T12:55:50.738Z,16.70
2022-10-22T12:58:20.334Z,16.27
2022-10-22T13:00:48.664Z,15.52
2022-10-22T13:03:27.527Z,15.23
2022-10-22T13:05:54.679Z,16.75
2022-10-22T13:10:56.113Z,18.98
2022-10-22T13:13:31.818Z,17.77
2022-10-22T13:16:13.791Z,17.40
2022-10-22T13:18:40.801Z,16.87
2022-10-22T13:21:22.639Z,16.73
2022-10-22T13:24:00.700Z,17.10
2022-10-22T13:26:35.620Z,17.08
2022-10-22T13:29:03.838Z,17.10
2022-10-22T13:31:33.498Z,17.92
2022-10-22T13:34:09.839Z,30.48
2022-10-22T13:36:39.018Z,14.30
2022-10-22T13:39:07.970Z,15.65
2022-10-22T13:44:10.528Z,14.50
2022-10-22T13:46:42.918Z,13.85
2022-10-22T13:49:15.873Z,21.33
2022-10-22T13:51:43.147Z,14.85
2022-10-22T13:54:17.218Z,12.90
2022-10-22T13:56:44.061Z,13.52
2022-10-22T13:59:11.201Z,16.02
2022-10-22T14:01:39.125Z,17.55
2022-10-22T14:04:08.083Z,13.35
2022-10-22T14:09:11.266Z,13.23
2022-10-22T14:11:38.157Z,15.85
2022-10-22T14:14:08.623Z,15.57
2022-10-22T14:16:37.586Z,12.05
2022-10-22T14:19:05.003Z,11.98
2022-10-22T14:21:36.729Z,11.70
2022-10-22T14:24:06.020Z,11.43
2022-10-22T14:26:35.245Z,12.63
2022-10-22T14:29:10.992Z,13.57
2022-10-22T14:34:16.565Z,11.52
2022-10-22T14:36:44.133Z,12.52
2022-10-22T14:39:12.593Z,13.70
2022-10-22T14:41:39.685Z,12.68
2022-10-22T14:44:07.618Z,12.18
2022-10-22T14:46:34.462Z,12.55
2022-10-22T14:49:01.324Z,15.27
2022-10-22T14:51:28.446Z,12.68
2022-10-22T14:53:55.293Z,12.85
2022-10-22T14:56:22.251Z,15.75
2022-10-22T14:58:49.858Z,12.27
2022-10-22T15:01:17.102Z,13.18
2022-10-22T15:03:43.977Z,12.55
2022-10-22T15:06:11.090Z,24.85
2022-10-22T15:08:38.061Z,23.85
2022-10-22T15:11:11.104Z,20.85
2022-10-22T15:13:39.275Z,18.70
2022-10-22T15:16:07.529Z,15.38
2022-10-22T15:18:34.570Z,14.77
2022-10-22T15:21:07.243Z,14.40
2022-10-22T15:23:34.136Z,14.10
2022-10-22T15:26:01.343Z,15.18
2022-10-22T15:28:28.207Z,13.25
2022-10-22T15:31:00.050Z,18.45
2022-10-22T15:33:28.525Z,16.48
2022-10-22T15:35:56.087Z,14.90
2022-10-22T15:41:05.845Z,14.48
2022-10-22T15:43:34.198Z,14.82
2022-10-22T15:46:13.541Z,15.75
2022-10-22T15:48:41.174Z,15.93
2022-10-22T15:51:18.953Z,15.65
2022-10-22T15:53:56.395Z,12.90
2022-10-22T15:56:24.726Z,13.45
2022-10-22T15:58:56.496Z,14.52
2022-10-22T16:01:24.126Z,14.63
2022-10-22T16:04:02.644Z,15.60
2022-10-22T16:06:41.356Z,16.48
2022-10-22T16:09:11.212Z,17.27
2022-10-22T16:11:39.103Z,23.37
2022-10-22T16:14:06.961Z,23.25
2022-10-22T16:16:35.481Z,26.67
2022-10-22T16:19:02.626Z,25.55
2022-10-22T16:21:29.526Z,25.95
2022-10-22T16:23:56.633Z,22.27
2022-10-22T16:26:23.542Z,22.08
2022-10-22T16:28:50.639Z,22.33
2022-10-22T16:31:19.650Z,25.23
2022-10-22T16:33:50.054Z,22.95
2022-10-22T16:36:19.241Z,19.90
2022-10-22T16:38:47.384Z,22.73
2022-10-22T16:41:22.553Z,20.35
2022-10-22T16:43:52.018Z,19.33
2022-10-22T16:46:20.668Z,18.87
2022-10-22T16:48:49.707Z,21.50
2022-10-22T16:51:20.815Z,21.30
2022-10-22T16:53:48.104Z,22.50
2022-10-22T16:56:16.249Z,21.33
2022-10-22T16:58:45.378Z,17.70
2022-10-22T17:01:14.876Z,19.30
2022-10-22T17:03:44.170Z,21.08
2022-10-22T17:06:11.952Z,22.08
2022-10-22T17:08:39.694Z,19.87
2022-10-22T17:11:07.623Z,21.05
2022-10-22T17:13:34.719Z,22.73
2022-10-22T17:16:05.885Z,24.75
2022-10-22T17:18:33.825Z,25.65
2022-10-22T17:21:00.759Z,23.08
2022-10-22T17:23:30.421Z,24.77
2022-10-22T17:25:59.669Z,23.58
2022-10-22T17:28:26.742Z,21.27
2022-10-22T17:31:07.691Z,19.33
2022-10-22T17:33:35.971Z,24.83
2022-10-22T17:36:08.965Z,21.27
2022-10-22T17:38:36.077Z,18.98
2022-10-22T17:41:04.323Z,18.85
2022-10-22T17:43:34.938Z,18.80
2022-10-22T17:46:11.158Z,19.83
2022-10-22T17:48:38.002Z,21.90
2022-10-22T17:51:09.320Z,21.48
2022-10-22T17:53:38.181Z,21.10
2022-10-22T17:56:10.188Z,22.92
2022-10-22T17:58:37.337Z,26.90
2022-10-22T18:01:04.878Z,22.62
2022-10-22T18:03:33.045Z,20.08
2022-10-22T18:06:07.519Z,20.20
2022-10-22T18:08:34.739Z,20.40
2022-10-22T18:11:06.361Z,23.85
2022-10-22T18:13:33.717Z,24.27
2022-10-22T18:16:01.058Z,18.92
2022-10-22T18:18:28.311Z,19.73
2022-10-22T18:20:55.291Z,18.62
2022-10-22T18:23:22.434Z,19.20
2022-10-22T18:25:49.462Z,19.83
2022-10-22T18:28:17.824Z,19.33
2022-10-22T18:30:46.682Z,20.67
2022-10-22T18:33:15.048Z,22.92
2022-10-22T18:35:42.158Z,25.27
2022-10-22T18:38:10.085Z,25.73
2022-10-22T18:40:44.518Z,25.75
2022-10-22T18:43:11.641Z,22.30
2022-10-22T18:45:42.961Z,25.73
2022-10-22T18:48:10.275Z,26.58
2022-10-22T18:50:37.408Z,21.58
2022-10-22T18:53:04.331Z,25.45
2022-10-22T18:55:31.206Z,23.02
2022-10-22T18:57:58.319Z,32.00
2022-10-22T19:00:26.574Z,21.55
2022-10-22T19:02:55.983Z,22.25
2022-10-22T19:05:23.109Z,22.23
2022-10-22T19:07:50.588Z,24.20
2022-10-22T19:10:17.749Z,21.55
2022-10-22T19:12:44.855Z,22.33
2022-10-22T19:15:11.729Z,26.33
2022-10-22T19:17:38.727Z,21.55
2022-10-22T19:20:06.460Z,20.73
2022-10-22T19:22:33.307Z,20.88
2022-10-22T19:25:00.156Z,20.92
2022-10-22T19:27:27.304Z,21.27
2022-10-22T19:29:54.207Z,21.48
2022-10-22T19:32:21.085Z,20.55
2022-10-22T19:34:48.188Z,20.23
2022-10-22T19:37:15.057Z,20.50
2022-10-22T19:39:41.930Z,20.00
2022-10-22T19:42:09.034Z,20.88
2022-10-22T19:44:36.016Z,19.33
2022-10-22T19:47:05.800Z,22.08
2022-10-22T19:49:33.633Z,22.45
2022-10-22T19:52:03.692Z,23.42
2022-10-22T19:54:33.402Z,23.08
2022-10-22T19:59:35.114Z,22.75
2022-10-22T20:02:03.485Z,22.87
2022-10-22T20:04:33.684Z,22.77
2022-10-22T20:07:04.345Z,23.87
2022-10-22T20:09:31.509Z,24.73
2022-10-22T20:12:00.715Z,22.50
2022-10-22T20:14:29.483Z,30.10
2022-10-22T20:16:56.619Z,25.35
2022-10-22T20:19:26.070Z,24.12
2022-10-22T20:21:52.920Z,24.50
2022-10-22T20:24:20.066Z,21.95
2022-10-22T20:26:47.023Z,20.33
2022-10-22T20:29:14.929Z,20.73
2022-10-22T20:31:42.073Z,20.67
2022-10-22T20:34:09.184Z,21.27
2022-10-22T20:36:36.045Z,20.10
2022-10-22T20:39:06.389Z,19.58
2022-10-22T20:41:34.798Z,18.92
2022-10-22T20:44:01.791Z,18.95
2022-10-22T20:46:31.238Z,18.23
2022-10-22T20:49:16.950Z,18.62
2022-10-22T20:51:44.238Z,18.00
2022-10-22T20:54:11.246Z,17.80
2022-10-22T20:56:39.522Z,18.33
2022-10-22T20:59:08.501Z,18.62
2022-10-22T21:01:44.160Z,16.83
2022-10-22T21:04:11.462Z,17.02
2022-10-22T21:06:39.058Z,16.52
2022-10-22T21:09:07.249Z,16.45
2022-10-22T21:11:35.534Z,16.20
2022-10-22T21:14:02.569Z,16.40
2022-10-22T21:16:29.583Z,16.77
2022-10-22T21:18:56.709Z,16.42
2022-10-22T21:21:23.566Z,15.63
2022-10-22T21:23:50.507Z,14.63
2022-10-22T21:26:18.894Z,17.45
2022-10-22T21:28:45.866Z,16.50
2022-10-22T21:31:21.830Z,16.48
2022-10-22T21:33:49.998Z,17.20
2022-10-22T21:36:21.628Z,15.32
2022-10-22T21:38:51.588Z,16.12
2022-10-22T21:41:20.725Z,15.70
2022-10-22T21:43:47.601Z,15.68
2022-10-22T21:46:26.730Z,17.12
2022-10-22T21:48:55.503Z,16.75
2022-10-22T21:51:23.452Z,16.45
2022-10-22T21:53:53.282Z,15.85
2022-10-22T21:56:25.537Z,16.33
2022-10-22T21:58:52.953Z,14.90
2022-10-22T22:01:20.234Z,13.70
2022-10-22T22:03:49.405Z,16.08
2022-10-22T22:06:21.167Z,14.75
2022-10-22T22:08:50.231Z,15.75
2022-10-22T22:11:27.311Z,15.68
2022-10-22T22:13:55.558Z,15.27
2022-10-22T22:16:28.950Z,15.75
2022-10-22T22:21:39.115Z,15.98
2022-10-22T22:24:06.786Z,16.33
2022-10-22T22:26:33.789Z,16.45
2022-10-22T22:29:01.141Z,14.87
2022-10-22T22:31:31.011Z,16.87
2022-10-22T22:34:02.355Z,17.45
2022-10-22T22:36:34.167Z,14.90
2022-10-22T22:39:01.103Z,17.17
2022-10-22T22:41:27.947Z,17.62
2022-10-22T22:46:26.833Z,15.93
2022-10-22T22:48:53.888Z,16.62
2022-10-22T22:51:21.069Z,16.50
2022-10-22T22:53:47.962Z,16.95
2022-10-22T22:56:23.004Z,17.73
2022-10-22T22:58:50.391Z,18.30
2022-10-22T23:01:19.598Z,17.27
2022-10-22T23:03:58.672Z,17.35
2022-10-22T23:06:27.423Z,16.80
2022-10-22T23:08:54.865Z,17.52
2022-10-22T23:11:24.150Z,16.37
2022-10-22T23:13:53.382Z,16.48
2022-10-22T23:16:21.722Z,16.37
2022-10-22T23:18:49.564Z,16.02
2022-10-22T23:21:19.547Z,16.60
2022-10-22T23:23:51.246Z,17.50
2022-10-22T23:26:20.867Z,14.73
2022-10-22T23:28:47.769Z,15.45
2022-10-22T23:31:16.132Z,14.95
2022-10-22T23:33:43.793Z,16.45
2022-10-22T23:36:10.990Z,15.32
2022-10-22T23:38:39.238Z,15.15
2022-10-22T23:41:07.234Z,15.88
2022-10-22T23:43:37.740Z,16.17
2022-10-22T23:46:07.133Z,15.20
2022-10-22T23:48:34.639Z,15.70
2022-10-22T23:51:11.258Z,15.95
2022-10-22T23:53:38.881Z,16.35
2022-10-22T23:56:08.328Z,15.85
2022-10-22T23:58:35.823Z,15.68
